Terminal Aerodrome Forecast
Issued by NWS

Home | Current Version | Previous Version | Text Only | Print | Product List | Glossary On
Versions: 1 2 3 4 5 6 7 8 9 10 11 12 13 14 15 16 17 18 19 20 21 22 23 24 25 26 27 28 29 30
453
FTUS41 KBOX 072343
TAFACK
TAF
KACK 072343Z 0800/0824 06007KT P6SM OVC200
     FM080200 06011KT P6SM OVC120
     FM080400 06015KT P6SM VCSH OVC100
     FM080600 06019KT 3SM -RA OVC070
     FM080800 06022G35KT 3SM -RA OVC020
     FM081000 05024G44KT 3SM -SN BR OVC015
     FM081400 04028G51KT 1/2SM SN FG OVC015
     FM081800 02031G56KT 1SM -SN BR OVC015
     FM082100 02026G47KT 1SM -SN BR OVC020=

USA.gov is the U.S. government's official web portal to all federal, state and local government web resources and services.